Time,TemperatureF,DewpointF,PressureIn,WindDirection,WindDirectionDegrees,WindSpeedMPH,WindSpeedGustMPH,Humidity,HourlyPrecipIn,Conditions,Clouds,dailyrainin,SoftwareType,DateUTC
2013-08-01 00:02:00,59.0,55.0,30.06,SSW,202,3.0,6.0,87,0.00,,,0.00,,2013-08-01 07:02:00,
2013-08-01 00:11:00,58.0,54.0,30.06,SSW,193,4.0,6.0,87,0.00,,,0.00,,2013-08-01 07:11:00,
2013-08-01 00:22:00,58.0,54.0,30.06,SW,215,3.0,7.0,87,0.00,,,0.00,,2013-08-01 07:22:00,
2013-08-01 00:32:00,58.0,54.0,30.07,SSW,203,1.0,5.0,88,0.00,,,0.00,,2013-08-01 07:32:00,
2013-08-01 00:43:00,58.0,54.0,30.07,SSW,204,3.0,6.0,88,0.00,,,0.00,,2013-08-01 07:43:00,
2013-08-01 00:52:00,58.0,54.0,30.06,SSW,196,1.0,7.0,88,0.00,,,0.00,,2013-08-01 07:52:00,
2013-08-01 01:02:00,58.0,54.0,30.06,SW,221,0.0,5.0,88,0.00,,,0.00,,2013-08-01 08:02:00,
2013-08-01 01:12:00,57.0,53.0,30.06,SW,221,0.0,4.0,88,0.00,,,0.00,,2013-08-01 08:12:00,
2013-08-01 01:53:00,57.0,53.0,30.05,South,189,1.0,2.0,87,0.00,,,0.00,,2013-08-01 08:53:00,
2013-08-01 02:12:00,57.0,53.0,30.05,SW,215,0.0,5.0,86,0.00,,,0.00,,2013-08-01 09:12:00,
2013-08-01 02:33:00,57.0,53.0,30.05,SW,223,0.0,3.0,87,0.00,,,0.00,,2013-08-01 09:33:00,
2013-08-01 02:53:00,57.0,53.0,30.05,SW,223,1.0,3.0,87,0.00,,,0.00,,2013-08-01 09:53:00,
2013-08-01 03:02:00,57.0,53.0,30.05,SW,232,0.0,3.0,87,0.00,,,0.00,,2013-08-01 10:02:00,
2013-08-01 03:12:00,57.0,53.0,30.05,SW,232,0.0,0.0,87,0.00,,,0.00,,2013-08-01 10:12:00,
2013-08-01 03:44:00,57.0,53.0,30.05,SW,231,0.0,2.0,88,0.00,,,0.00,,2013-08-01 10:44:00,
2013-08-01 03:53:00,57.0,53.0,30.05,SW,232,1.0,2.0,87,0.00,,,0.00,,2013-08-01 10:53:00,
2013-08-01 04:02:00,57.0,53.0,30.05,SSW,205,2.0,4.0,88,0.00,,,0.00,,2013-08-01 11:02:00,
2013-08-01 04:23:00,56.0,52.0,30.05,South,186,1.0,4.0,88,0.00,,,0.00,,2013-08-01 11:23:00,
2013-08-01 05:12:00,56.0,53.0,30.05,SSW,208,2.0,5.0,90,0.00,,,0.00,,2013-08-01 12:12:00,
2013-08-01 05:22:00,56.0,53.0,30.05,SSW,207,1.0,6.0,91,0.00,,,0.00,,2013-08-01 12:22:00,
2013-08-01 05:33:00,56.0,53.0,30.05,SSW,208,0.0,5.0,91,0.00,,,0.00,,2013-08-01 12:33:00,
2013-08-01 06:02:00,56.0,53.0,30.06,SSW,208,0.0,2.0,91,0.00,,,0.00,,2013-08-01 13:02:00,
2013-08-01 06:12:00,56.0,53.0,30.06,SSW,208,0.0,2.0,91,0.00,,,0.00,,2013-08-01 13:12:00,
2013-08-01 06:22:00,56.0,53.0,30.06,SSW,208,0.0,3.0,91,0.00,,,0.00,,2013-08-01 13:22:00,
2013-08-01 07:03:00,56.0,54.0,30.06,SSW,208,0.0,2.0,92,0.00,,,0.00,,2013-08-01 14:03:00,
2013-08-01 08:02:00,56.0,53.0,30.07,SSW,208,0.0,4.0,91,0.00,,,0.00,,2013-08-01 15:02:00,
2013-08-01 08:12:00,56.0,54.0,30.07,SSW,207,2.0,4.0,92,0.00,,,0.00,,2013-08-01 15:12:00,
2013-08-01 09:02:00,57.0,54.0,30.07,SSW,207,0.0,5.0,90,0.00,,,0.00,,2013-08-01 16:02:00,
2013-08-01 09:12:00,57.0,54.0,30.07,SSW,207,0.0,3.0,90,0.00,,,0.00,,2013-08-01 16:12:00,
2013-08-01 09:33:00,57.0,53.0,30.07,SSW,207,3.0,6.0,88,0.00,,,0.00,,2013-08-01 16:33:00,
2013-08-01 09:43:00,58.0,54.0,30.07,SSW,206,2.0,4.0,87,0.00,,,0.00,,2013-08-01 16:43:00,
2013-08-01 09:52:00,58.0,54.0,30.06,SSW,207,0.0,4.0,88,0.00,,,0.00,,2013-08-01 16:52:00,
2013-08-01 10:02:00,58.0,54.0,30.06,SSW,207,3.0,5.0,87,0.00,,,0.00,,2013-08-01 17:02:00,
2013-08-01 10:12:00,58.0,54.0,30.06,SW,220,0.0,2.0,86,0.00,,,0.00,,2013-08-01 17:12:00,
2013-08-01 10:22:00,58.0,54.0,30.07,SW,220,0.0,1.0,87,0.00,,,0.00,,2013-08-01 17:22:00,
2013-08-01 10:53:00,59.0,54.0,30.07,SW,219,0.0,2.0,85,0.00,,,0.00,,2013-08-01 17:53:00,
2013-08-01 11:12:00,60.0,55.0,30.07,SSW,209,2.0,5.0,84,0.00,,,0.00,,2013-08-01 18:12:00,
2013-08-01 11:43:00,60.0,55.0,30.07,SSW,197,0.0,3.0,84,0.00,,,0.00,,2013-08-01 18:43:00,
2013-08-01 11:53:00,60.0,55.0,30.07,SSW,197,3.0,4.0,83,0.00,,,0.00,,2013-08-01 18:53:00,
2013-08-01 12:02:00,60.0,55.0,30.08,SSW,208,4.0,6.0,83,0.00,,,0.00,,2013-08-01 19:02:00,
2013-08-01 13:02:00,61.0,56.0,30.08,SW,220,0.0,3.0,83,0.00,,,0.00,,2013-08-01 20:02:00,
2013-08-01 13:12:00,61.0,55.0,30.09,South,180,5.0,9.0,81,0.00,,,0.00,,2013-08-01 20:12:00,
2013-08-01 13:32:00,61.0,55.0,30.09,SSW,207,7.0,11.0,81,0.00,,,0.00,,2013-08-01 20:32:00,
2013-08-01 14:33:00,61.0,56.0,30.09,SSW,211,1.0,4.0,83,0.00,,,0.00,,2013-08-01 21:33:00,
2013-08-01 14:53:00,61.0,55.0,30.10,SSW,212,0.0,6.0,82,0.00,,,0.00,,2013-08-01 21:53:00,
2013-08-01 15:02:00,61.0,56.0,30.10,SSW,212,0.0,2.0,84,0.00,,,0.00,,2013-08-01 22:02:00,
2013-08-01 16:12:00,61.0,57.0,30.09,SSW,194,0.0,2.0,86,0.00,,,0.00,,2013-08-01 23:12:00,
2013-08-01 16:22:00,61.0,56.0,30.09,SSW,195,0.0,2.0,85,0.00,,,0.00,,2013-08-01 23:22:00,
2013-08-01 16:43:00,61.0,56.0,30.09,SSW,194,0.0,2.0,84,0.00,,,0.00,,2013-08-01 23:43:00,
2013-08-01 16:53:00,62.0,57.0,30.09,South,171,0.0,2.0,83,0.00,,,0.00,,2013-08-01 23:53:00,
2013-08-01 17:02:00,62.0,56.0,30.09,South,191,1.0,6.0,81,0.00,,,0.00,,2013-08-02 00:02:00,
2013-08-01 17:12:00,62.0,56.0,30.09,SW,226,0.0,3.0,81,0.00,,,0.00,,2013-08-02 00:12:00,
2013-08-01 17:32:00,62.0,56.0,30.09,SW,225,0.0,1.0,82,0.00,,,0.00,,2013-08-02 00:32:00,
2013-08-01 17:52:00,62.0,56.0,30.09,SW,225,0.0,1.0,80,0.00,,,0.00,,2013-08-02 00:52:00,
2013-08-01 18:02:00,62.0,56.0,30.09,SW,225,0.0,1.0,80,0.00,,,0.00,,2013-08-02 01:02:00,
2013-08-01 18:52:00,63.0,57.0,30.08,SW,225,0.0,1.0,80,0.00,,,0.00,,2013-08-02 01:52:00,
2013-08-01 19:12:00,63.0,57.0,30.08,SW,225,0.0,1.0,80,0.00,,,0.00,,2013-08-02 02:12:00,
2013-08-01 19:34:00,62.0,55.0,30.08,South,191,2.0,5.0,77,0.00,,,0.00,,2013-08-02 02:34:00,
2013-08-01 19:52:00,62.0,55.0,30.08,SSW,204,0.0,1.0,78,0.00,,,0.00,,2013-08-02 02:52:00,
2013-08-01 20:02:00,62.0,55.0,30.08,SSW,202,0.0,3.0,78,0.00,,,0.00,,2013-08-02 03:02:00,
2013-08-01 20:12:00,62.0,55.0,30.08,SSW,201,0.0,3.0,78,0.00,,,0.00,,2013-08-02 03:12:00,
2013-08-01 20:22:00,62.0,55.0,30.08,SSW,207,0.0,6.0,77,0.00,,,0.00,,2013-08-02 03:22:00,
2013-08-01 20:32:00,62.0,55.0,30.08,SSW,207,0.0,6.0,78,0.00,,,0.00,,2013-08-02 03:32:00,
2013-08-01 20:42:00,62.0,55.0,30.08,SSW,208,0.0,1.0,78,0.00,,,0.00,,2013-08-02 03:42:00,
2013-08-01 20:52:00,62.0,55.0,30.08,SSW,208,0.0,1.0,79,0.00,,,0.00,,2013-08-02 03:52:00,
2013-08-01 21:02:00,61.0,54.0,30.09,SSW,208,0.0,1.0,79,0.00,,,0.00,,2013-08-02 04:02:00,
2013-08-01 21:12:00,61.0,54.0,30.09,SSW,207,0.0,0.0,79,0.00,,,0.00,,2013-08-02 04:12:00,
2013-08-01 21:21:00,61.0,54.0,30.09,SSW,207,0.0,0.0,79,0.00,,,0.00,,2013-08-02 04:21:00,
2013-08-01 21:43:00,60.0,54.0,30.10,SSW,207,0.0,0.0,81,0.00,,,0.00,,2013-08-02 04:43:00,
2013-08-01 21:53:00,60.0,54.0,30.10,SSW,207,0.0,0.0,81,0.00,,,0.00,,2013-08-02 04:53:00,
2013-08-01 22:02:00,60.0,54.0,30.11,SSW,207,0.0,1.0,81,0.00,,,0.00,,2013-08-02 05:02:00,
2013-08-01 22:11:00,60.0,54.0,30.11,SSW,207,0.0,1.0,81,0.00,,,0.00,,2013-08-02 05:11:00,
2013-08-01 22:32:00,60.0,55.0,30.11,SSW,207,0.0,0.0,83,0.00,,,0.00,,2013-08-02 05:32:00,
2013-08-01 22:43:00,59.0,54.0,30.11,SSW,207,0.0,0.0,83,0.00,,,0.00,,2013-08-02 05:43:00,
2013-08-01 22:53:00,59.0,54.0,30.11,SSW,207,0.0,0.0,83,0.00,,,0.00,,2013-08-02 05:53:00,
2013-08-01 23:02:00,59.0,54.0,30.11,SSW,207,0.0,0.0,83,0.00,,,0.00,,2013-08-02 06:02:00,
2013-08-01 23:11:00,59.0,54.0,30.11,SSW,207,0.0,0.0,83,0.00,,,0.00,,2013-08-02 06:11:00,
2013-08-01 23:33:00,58.0,53.0,30.10,SSW,207,0.0,0.0,84,0.00,,,0.00,,2013-08-02 06:33:00,
2013-08-01 23:43:00,58.0,53.0,30.10,SSW,207,0.0,0.0,84,0.00,,,0.00,,2013-08-02 06:43:00,
2013-08-01 23:52:00,58.0,54.0,30.10,SSW,207,0.0,0.0,85,0.00,,,0.00,,2013-08-02 06:52:00,